createdAt,value
2022-08-21T00:02:14.055Z,12.20
2022-08-21T00:04:48.312Z,13.30
2022-08-21T00:07:26.769Z,12.10
2022-08-21T00:09:55.726Z,13.20
2022-08-21T00:12:24.137Z,11.60
2022-08-21T00:14:54.776Z,11.50
2022-08-21T00:17:26.536Z,11.30
2022-08-21T00:19:54.887Z,10.40
2022-08-21T00:22:23.096Z,11.90
2022-08-21T00:24:51.569Z,12.00
2022-08-21T00:27:19.897Z,11.80
2022-08-21T00:29:48.351Z,11.20
2022-08-21T00:32:22.547Z,11.00
2022-08-21T00:34:51.303Z,11.40
2022-08-21T00:37:20.771Z,12.20
2022-08-21T00:39:49.785Z,11.40
2022-08-21T00:42:18.717Z,11.90
2022-08-21T00:44:50.161Z,11.60
2022-08-21T00:47:20.349Z,10.80
2022-08-21T00:49:49.152Z,10.90
2022-08-21T00:52:23.434Z,10.20
2022-08-21T00:54:53.030Z,11.40
2022-08-21T00:57:27.262Z,11.00
2022-08-21T01:00:00.224Z,11.40
2022-08-21T01:03:32.957Z,9.90
2022-08-21T01:06:05.430Z,12.10
2022-08-21T01:11:04.409Z,11.30
2022-08-21T01:13:39.456Z,11.20
2022-08-21T01:16:14.145Z,11.10
2022-08-21T01:18:43.035Z,10.40
2022-08-21T01:21:15.053Z,11.10
2022-08-21T01:23:45.855Z,11.20
2022-08-21T01:26:17.200Z,11.10
2022-08-21T01:28:53.712Z,10.10
2022-08-21T01:31:25.972Z,10.40
2022-08-21T01:33:55.906Z,10.80
2022-08-21T01:36:25.251Z,11.60
2022-08-21T01:38:53.623Z,10.20
2022-08-21T01:41:21.978Z,11.10
2022-08-21T01:43:50.351Z,9.90
2022-08-21T01:46:19.390Z,10.50
2022-08-21T01:48:47.963Z,10.70
2022-08-21T01:51:16.164Z,10.80
2022-08-21T01:53:44.379Z,10.60
2022-08-21T01:56:15.229Z,11.40
2022-08-21T01:58:46.807Z,11.40
2022-08-21T02:01:15.583Z,11.50
2022-08-21T02:03:43.891Z,12.20
2022-08-21T02:06:18.623Z,11.50
2022-08-21T02:08:47.829Z,10.80
2022-08-21T02:11:16.153Z,10.70
2022-08-21T02:13:44.394Z,10.30
2022-08-21T02:16:19.195Z,11.40
2022-08-21T02:18:48.281Z,11.40
2022-08-21T02:21:16.876Z,11.50
2022-08-21T02:23:46.019Z,11.30
2022-08-21T02:26:14.284Z,11.40
2022-08-21T02:28:43.939Z,11.60
2022-08-21T02:31:12.931Z,10.80
2022-08-21T02:33:44.043Z,11.70
2022-08-21T02:36:13.081Z,10.80
2022-08-21T02:38:43.361Z,11.70
2022-08-21T02:41:17.939Z,11.90
2022-08-21T02:43:46.527Z,11.40
2022-08-21T02:46:18.563Z,12.20
2022-08-21T02:48:47.483Z,11.10
2022-08-21T02:51:19.140Z,10.00
2022-08-21T02:53:49.216Z,9.80
2022-08-21T02:56:21.420Z,10.70
2022-08-21T02:58:52.736Z,11.50
2022-08-21T03:01:22.931Z,10.60
2022-08-21T03:03:51.362Z,10.90
2022-08-21T03:06:22.626Z,9.70
2022-08-21T03:08:51.949Z,9.70
2022-08-21T03:11:21.806Z,10.40
2022-08-21T03:13:52.205Z,9.70
2022-08-21T03:16:21.690Z,9.30
2022-08-21T03:18:50.142Z,9.50
2022-08-21T03:21:20.102Z,9.70
2022-08-21T03:23:48.264Z,10.00
2022-08-21T03:26:16.476Z,9.80
2022-08-21T03:28:44.739Z,9.40
2022-08-21T03:31:12.906Z,9.50
2022-08-21T03:33:41.221Z,10.70
2022-08-21T03:36:09.937Z,10.90
2022-08-21T03:38:39.454Z,10.20
2022-08-21T03:41:09.667Z,12.20
2022-08-21T03:43:37.853Z,10.60
2022-08-21T03:46:07.224Z,10.30
2022-08-21T03:48:37.702Z,11.20
2022-08-21T03:51:07.643Z,10.50
2022-08-21T03:53:36.250Z,10.80
2022-08-21T03:56:06.073Z,9.50
2022-08-21T03:58:34.452Z,10.00
2022-08-21T04:01:04.345Z,9.80
2022-08-21T04:03:33.110Z,10.00
2022-08-21T04:06:01.337Z,9.80
2022-08-21T04:08:29.842Z,10.00
2022-08-21T04:10:59.497Z,10.10
2022-08-21T04:13:29.310Z,10.00
2022-08-21T04:15:59.976Z,9.60
2022-08-21T04:18:28.185Z,9.30
2022-08-21T04:20:58.817Z,10.40
2022-08-21T04:23:27.807Z,9.00
2022-08-21T04:26:09.244Z,9.50
2022-08-21T04:28:37.492Z,9.60
2022-08-21T04:31:05.768Z,10.40
2022-08-21T04:33:34.436Z,9.80
2022-08-21T04:36:03.846Z,9.80
2022-08-21T04:38:36.570Z,9.50
2022-08-21T04:41:07.775Z,9.60
2022-08-21T04:43:36.048Z,9.40
2022-08-21T04:46:04.514Z,9.90
2022-08-21T04:48:34.222Z,9.30
2022-08-21T04:51:17.463Z,9.60
2022-08-21T04:53:50.368Z,9.00
2022-08-21T04:56:23.294Z,9.20
2022-08-21T04:58:56.108Z,9.30
2022-08-21T05:01:28.373Z,9.20
2022-08-21T05:04:01.055Z,9.90
2022-08-21T05:06:36.343Z,9.80
2022-08-21T05:09:05.946Z,9.80
2022-08-21T05:11:36.041Z,9.80
2022-08-21T05:14:04.423Z,9.10
2022-08-21T05:16:37.100Z,8.50
2022-08-21T05:19:11.515Z,9.10
2022-08-21T05:21:44.612Z,9.00
2022-08-21T05:24:13.218Z,8.70
2022-08-21T05:26:46.511Z,8.40
2022-08-21T05:29:18.175Z,8.10
2022-08-21T05:31:48.185Z,8.90
2022-08-21T05:34:20.986Z,8.60
2022-08-21T05:36:49.397Z,9.10
2022-08-21T05:39:18.002Z,9.30
2022-08-21T05:41:50.350Z,8.50
2022-08-21T05:44:18.543Z,8.70
2022-08-21T05:46:48.715Z,8.20
2022-08-21T05:49:16.920Z,9.50
2022-08-21T05:51:45.063Z,8.50
2022-08-21T05:54:13.240Z,8.10
2022-08-21T05:56:41.360Z,8.40
2022-08-21T05:59:09.515Z,9.00
2022-08-21T06:01:37.902Z,7.70
2022-08-21T06:04:06.793Z,7.70
2022-08-21T06:06:36.080Z,7.70
2022-08-21T06:09:05.717Z,7.60
2022-08-21T06:11:34.522Z,7.90
2022-08-21T06:14:03.203Z,7.90
2022-08-21T06:16:31.415Z,8.30
2022-08-21T06:19:02.784Z,7.70
2022-08-21T06:21:31.909Z,7.90
2022-08-21T06:24:00.249Z,7.40
2022-08-21T06:26:29.177Z,7.70
2022-08-21T06:28:57.851Z,8.00
2022-08-21T06:31:28.590Z,7.40
2022-08-21T06:33:57.004Z,7.80
2022-08-21T06:36:25.666Z,6.90
2022-08-21T06:38:53.820Z,6.90
2022-08-21T06:41:27.064Z,7.70
2022-08-21T06:43:57.062Z,7.50
2022-08-21T06:46:27.584Z,8.00
2022-08-21T06:48:56.853Z,7.10
2022-08-21T06:51:28.896Z,7.10
2022-08-21T06:54:00.174Z,7.20
2022-08-21T06:56:28.426Z,7.30
2022-08-21T06:58:57.595Z,7.60
2022-08-21T07:01:28.082Z,7.30
2022-08-21T07:03:56.352Z,7.50
2022-08-21T07:06:24.880Z,7.60
2022-08-21T07:08:53.099Z,7.60
2022-08-21T07:11:25.192Z,7.90
2022-08-21T07:13:55.475Z,7.30
2022-08-21T07:16:24.528Z,7.50
2022-08-21T07:18:52.819Z,7.50
2022-08-21T07:21:25.603Z,7.50
2022-08-21T07:23:54.999Z,7.60
2022-08-21T07:26:25.784Z,8.50
2022-08-21T07:28:54.452Z,7.80
2022-08-21T07:31:26.147Z,7.20
2022-08-21T07:33:55.381Z,7.30
2022-08-21T07:36:24.515Z,7.30
2022-08-21T07:38:53.098Z,7.40
2022-08-21T07:41:24.613Z,7.00
2022-08-21T07:43:53.225Z,7.30
2022-08-21T07:46:21.640Z,7.90
2022-08-21T07:48:55.786Z,7.20
2022-08-21T07:51:28.288Z,7.20
2022-08-21T07:53:59.267Z,6.80
2022-08-21T07:56:31.367Z,7.20
2022-08-21T07:58:59.907Z,7.30
2022-08-21T08:01:28.285Z,7.70
2022-08-21T08:03:57.240Z,7.80
2022-08-21T08:06:27.106Z,8.30
2022-08-21T08:08:55.330Z,8.10
2022-08-21T08:11:23.867Z,7.30
2022-08-21T08:13:53.719Z,7.70
2022-08-21T08:16:23.412Z,7.30
2022-08-21T08:18:52.350Z,7.70
2022-08-21T08:21:21.985Z,7.80
2022-08-21T08:23:53.170Z,7.60
2022-08-21T08:26:21.339Z,7.80
2022-08-21T08:28:49.604Z,7.90
2022-08-21T08:31:17.867Z,8.10
2022-08-21T08:33:46.016Z,7.50
2022-08-21T08:36:19.174Z,7.80
2022-08-21T08:38:49.086Z,8.10
2022-08-21T08:41:23.892Z,7.70
2022-08-21T08:44:06.020Z,7.90
2022-08-21T08:46:47.297Z,8.20
2022-08-21T08:49:21.699Z,8.60
2022-08-21T08:52:05.031Z,8.60
2022-08-21T08:54:40.583Z,8.40
2022-08-21T08:57:15.630Z,8.80
2022-08-21T08:59:50.457Z,8.60
2022-08-21T09:02:26.250Z,8.80
2022-08-21T09:04:56.629Z,8.70
2022-08-21T09:07:43.528Z,8.60
2022-08-21T09:10:20.179Z,8.30
2022-08-21T09:13:22.160Z,8.60
2022-08-21T09:15:53.339Z,8.90
2022-08-21T09:18:41.994Z,8.20
2022-08-21T09:21:17.054Z,9.00
2022-08-21T09:24:03.948Z,9.40
2022-08-21T09:26:43.147Z,9.00
2022-08-21T09:29:13.158Z,9.00
2022-08-21T09:31:41.322Z,9.30
2022-08-21T09:34:13.152Z,8.90
2022-08-21T09:36:45.188Z,8.50
2022-08-21T09:39:23.390Z,9.70
2022-08-21T09:42:06.595Z,8.90
2022-08-21T09:44:42.002Z,9.20
2022-08-21T09:47:16.086Z,9.30
2022-08-21T09:49:44.785Z,10.00
2022-08-21T09:52:22.707Z,10.80
2022-08-21T09:54:56.877Z,9.90
2022-08-21T09:57:46.385Z,10.00
2022-08-21T10:00:24.039Z,9.80
2022-08-21T10:02:53.085Z,10.40
2022-08-21T10:05:27.972Z,10.70
2022-08-21T10:07:56.153Z,9.10
2022-08-21T10:10:29.941Z,10.40
2022-08-21T10:13:01.519Z,9.20
2022-08-21T10:16:06.768Z,10.50
2022-08-21T10:18:34.991Z,10.00
2022-08-21T10:21:18.803Z,10.80
2022-08-21T10:23:50.033Z,10.00
2022-08-21T10:26:32.937Z,11.40
2022-08-21T10:29:40.146Z,10.40
2022-08-21T10:32:44.964Z,10.70
2022-08-21T10:35:33.483Z,11.40
2022-08-21T10:38:55.312Z,10.80
2022-08-21T10:41:43.957Z,10.70
2022-08-21T10:44:40.207Z,11.10
2022-08-21T10:47:08.656Z,10.60
2022-08-21T10:49:42.420Z,11.20
2022-08-21T10:52:29.182Z,11.40
2022-08-21T10:55:05.230Z,11.60
2022-08-21T10:57:59.671Z,10.60
2022-08-21T11:00:57.391Z,10.90
2022-08-21T11:03:35.738Z,11.40
2022-08-21T11:06:12.337Z,10.70
2022-08-21T11:08:44.382Z,10.90
2022-08-21T11:11:36.238Z,11.30
2022-08-21T11:14:14.295Z,11.50
2022-08-21T11:16:49.926Z,11.30
2022-08-21T11:19:36.481Z,10.30
2022-08-21T11:22:31.182Z,11.40
2022-08-21T11:25:33.772Z,11.70
2022-08-21T11:28:16.961Z,11.20
2022-08-21T11:30:53.574Z,11.30
2022-08-21T11:33:52.995Z,10.90
2022-08-21T11:36:46.580Z,10.70
2022-08-21T11:39:33.981Z,11.30
2022-08-21T11:42:25.393Z,10.80
2022-08-21T11:45:12.081Z,11.10
2022-08-21T11:48:00.846Z,11.00
2022-08-21T11:50:35.532Z,10.80
2022-08-21T11:53:32.579Z,10.90
2022-08-21T11:56:10.679Z,11.40
2022-08-21T11:58:47.282Z,10.20
2022-08-21T12:01:22.996Z,11.90
2022-08-21T12:04:03.233Z,10.00
2022-08-21T12:06:41.465Z,10.60
2022-08-21T12:09:30.963Z,11.00
2022-08-21T12:12:06.963Z,10.70
2022-08-21T12:14:46.146Z,10.10
2022-08-21T12:17:23.541Z,9.60
2022-08-21T12:20:15.739Z,10.00
2022-08-21T12:22:53.116Z,10.00
2022-08-21T12:25:23.557Z,9.60
2022-08-21T12:27:54.693Z,10.10
2022-08-21T12:30:29.247Z,50.10
2022-08-21T12:33:19.099Z,66.20
2022-08-21T12:35:50.520Z,262.90
2022-08-21T12:38:25.675Z,149.70
2022-08-21T12:40:57.870Z,88.70
2022-08-21T12:44:10.825Z,20.80
2022-08-21T12:46:49.435Z,21.80
2022-08-21T12:49:30.299Z,13.80
2022-08-21T12:52:21.279Z,10.30
2022-08-21T12:54:49.529Z,12.90
2022-08-21T12:57:38.395Z,25.70
2022-08-21T13:00:14.566Z,19.90
2022-08-21T13:02:50.478Z,13.80
2022-08-21T13:05:30.589Z,12.30
2022-08-21T13:07:59.913Z,14.80
2022-08-21T13:10:32.029Z,20.20
2022-08-21T13:13:12.548Z,24.20
2022-08-21T13:15:47.819Z,47.50
2022-08-21T13:18:25.751Z,32.50
2022-08-21T13:21:13.719Z,309.10
2022-08-21T13:23:42.577Z,778.00
2022-08-21T13:26:22.186Z,376.50
2022-08-21T13:28:51.603Z,456.60
2022-08-21T13:33:51.921Z,729.10
2022-08-21T13:36:41.939Z,529.90
2022-08-21T13:39:13.930Z,510.60
2022-08-21T13:41:45.326Z,470.30
2022-08-21T13:44:20.703Z,810.00
2022-08-21T13:46:51.085Z,964.50
2022-08-21T13:51:49.384Z,381.30
2022-08-21T13:54:26.017Z,610.70
2022-08-21T13:56:55.219Z,501.20
2022-08-21T13:59:36.388Z,126.20
2022-08-21T14:02:39.106Z,107.80
2022-08-21T14:05:08.063Z,433.30
2022-08-21T14:07:40.520Z,99.60
2022-08-21T14:10:20.752Z,551.60
2022-08-21T14:12:56.086Z,901.00
2022-08-21T14:15:27.538Z,199.70
2022-08-21T14:18:08.698Z,275.10
2022-08-21T14:20:37.758Z,262.90
2022-08-21T14:23:06.292Z,554.40
2022-08-21T14:25:46.231Z,66.20
2022-08-21T14:28:32.970Z,805.60
2022-08-21T14:31:23.453Z,143.80
2022-08-21T14:33:51.847Z,537.90
2022-08-21T14:36:19.980Z,811.50
2022-08-21T14:38:48.675Z,999.90
2022-08-21T14:41:19.934Z,999.90
2022-08-21T14:43:48.433Z,999.90
2022-08-21T14:46:35.796Z,999.90
2022-08-21T14:49:05.070Z,967.20
2022-08-21T14:51:33.354Z,894.00
2022-08-21T14:54:01.707Z,849.40
2022-08-21T14:56:30.192Z,515.80
2022-08-21T14:59:04.283Z,746.20
2022-08-21T15:01:45.735Z,687.90
2022-08-21T15:04:14.531Z,561.20
2022-08-21T15:06:42.840Z,583.80
2022-08-21T15:09:10.942Z,186.70
2022-08-21T15:11:42.667Z,144.50
2022-08-21T15:14:16.292Z,720.50
2022-08-21T15:16:44.717Z,663.50
2022-08-21T15:19:13.004Z,307.80
2022-08-21T15:21:41.291Z,532.30
2022-08-21T15:24:09.595Z,770.90
2022-08-21T15:26:38.243Z,686.10
2022-08-21T15:29:08.445Z,526.00
2022-08-21T15:31:37.487Z,922.60
2022-08-21T15:34:05.599Z,263.30
2022-08-21T15:36:33.967Z,50.50
2022-08-21T15:39:02.348Z,177.20
2022-08-21T15:41:30.788Z,131.50
2022-08-21T15:43:58.881Z,55.60
2022-08-21T15:46:27.173Z,27.80
2022-08-21T15:48:59.724Z,238.90
2022-08-21T15:51:28.826Z,36.60
2022-08-21T15:53:57.517Z,14.50
2022-08-21T15:56:35.652Z,19.50
2022-08-21T15:59:18.831Z,36.40
2022-08-21T16:01:52.068Z,31.70
2022-08-21T16:04:25.158Z,19.20
2022-08-21T16:06:59.863Z,15.40
2022-08-21T16:09:30.166Z,12.30
2022-08-21T16:12:01.271Z,15.30
2022-08-21T16:14:31.492Z,13.30
2022-08-21T16:16:59.809Z,14.20
2022-08-21T16:19:29.915Z,11.60
2022-08-21T16:21:58.718Z,11.70
2022-08-21T16:24:26.939Z,10.80
2022-08-21T16:26:57.896Z,10.90
2022-08-21T16:29:33.677Z,9.20
2022-08-21T16:32:03.301Z,10.90
2022-08-21T16:34:31.762Z,12.20
2022-08-21T16:37:00.150Z,14.10
2022-08-21T16:39:28.610Z,13.20
2022-08-21T16:41:57.080Z,12.20
2022-08-21T16:44:25.258Z,12.40
2022-08-21T16:46:58.683Z,14.10
2022-08-21T16:49:28.037Z,15.00
2022-08-21T16:51:56.212Z,15.20
2022-08-21T16:54:27.398Z,15.30
2022-08-21T16:56:55.899Z,15.30
2022-08-21T16:59:24.163Z,16.30
2022-08-21T17:01:53.913Z,16.20
2022-08-21T17:04:25.978Z,15.90
2022-08-21T17:06:55.191Z,15.40
2022-08-21T17:09:23.423Z,15.80
2022-08-21T17:11:51.992Z,16.70
2022-08-21T17:14:23.812Z,14.40
2022-08-21T17:16:54.523Z,14.10
2022-08-21T17:19:24.706Z,13.30
2022-08-21T17:21:53.959Z,13.60
2022-08-21T17:24:22.329Z,13.00
2022-08-21T17:26:53.289Z,14.10
2022-08-21T17:29:29.688Z,14.10
2022-08-21T17:31:58.759Z,14.30
2022-08-21T17:34:31.115Z,14.40
2022-08-21T17:37:00.591Z,15.10
2022-08-21T17:39:28.749Z,14.50
2022-08-21T17:42:00.551Z,14.70
2022-08-21T17:44:29.492Z,15.00
2022-08-21T17:46:57.686Z,15.50
2022-08-21T17:49:25.856Z,16.00
2022-08-21T17:51:54.234Z,15.90
2022-08-21T17:54:22.574Z,15.50
2022-08-21T17:56:52.066Z,15.90
2022-08-21T17:59:21.236Z,15.80
2022-08-21T18:01:49.423Z,17.30
2022-08-21T18:04:18.380Z,16.20
2022-08-21T18:06:46.875Z,16.20
2022-08-21T18:09:15.559Z,16.70
2022-08-21T18:11:44.040Z,15.00
2022-08-21T18:14:13.159Z,16.30
2022-08-21T18:16:42.362Z,16.60
2022-08-21T18:19:15.576Z,15.40
2022-08-21T18:21:44.552Z,15.60
2022-08-21T18:24:13.083Z,16.00
2022-08-21T18:26:42.745Z,15.20
2022-08-21T18:29:14.531Z,14.00
2022-08-21T18:31:46.009Z,14.70
2022-08-21T18:34:26.106Z,14.20
2022-08-21T18:36:55.318Z,14.90
2022-08-21T18:39:40.049Z,13.80
2022-08-21T18:42:12.653Z,13.90
2022-08-21T18:44:44.107Z,13.40
2022-08-21T18:47:22.784Z,13.70
2022-08-21T18:49:51.560Z,13.10
2022-08-21T18:52:22.831Z,11.80
2022-08-21T18:54:56.788Z,11.90
2022-08-21T18:57:29.539Z,12.70
2022-08-21T18:59:58.058Z,12.90
2022-08-21T19:02:26.881Z,12.20
2022-08-21T19:04:54.991Z,12.40
2022-08-21T19:07:23.627Z,11.30
2022-08-21T19:10:21.013Z,11.70
2022-08-21T19:12:44.469Z,12.60
2022-08-21T19:15:19.138Z,11.60
2022-08-21T19:20:37.467Z,12.60
2022-08-21T19:23:07.442Z,11.70
2022-08-21T19:25:39.738Z,10.80
2022-08-21T19:28:15.324Z,10.50
2022-08-21T19:30:54.323Z,10.60
2022-08-21T19:33:27.694Z,9.50
2022-08-21T19:35:55.882Z,9.40
2022-08-21T19:38:24.374Z,9.10
2022-08-21T19:40:53.521Z,8.60
2022-08-21T19:43:23.423Z,8.90
2022-08-21T19:45:56.522Z,9.00
2022-08-21T19:48:26.077Z,9.40
2022-08-21T19:50:54.452Z,10.40
2022-08-21T19:53:22.859Z,10.80
2022-08-21T19:55:51.281Z,10.10
2022-08-21T19:58:28.608Z,10.90
2022-08-21T20:00:56.838Z,10.90
2022-08-21T20:03:25.135Z,11.00
2022-08-21T20:08:42.313Z,11.70
2022-08-21T20:11:12.421Z,10.90
2022-08-21T20:13:43.257Z,12.40
2022-08-21T20:16:14.637Z,11.40
2022-08-21T20:21:13.326Z,12.90
2022-08-21T20:23:48.699Z,12.80
2022-08-21T20:26:18.736Z,11.40
2022-08-21T20:28:50.310Z,13.10
2022-08-21T20:31:20.189Z,12.90
2022-08-21T20:33:50.225Z,12.80
2022-08-21T20:36:19.850Z,11.60
2022-08-21T20:41:36.493Z,10.80
2022-08-21T20:44:05.599Z,12.30
2022-08-21T20:46:35.347Z,11.80
2022-08-21T20:49:05.956Z,11.80
2022-08-21T20:51:39.662Z,12.30
2022-08-21T20:54:34.348Z,11.60
2022-08-21T20:57:21.899Z,11.50
2022-08-21T21:00:15.618Z,11.00
2022-08-21T21:02:52.360Z,10.90
2022-08-21T21:05:31.993Z,10.70
2022-08-21T21:08:23.956Z,11.00
2022-08-21T21:11:07.817Z,11.80
2022-08-21T21:13:48.339Z,11.80
2022-08-21T21:16:25.237Z,10.90
2022-08-21T21:19:01.009Z,12.20
2022-08-21T21:21:35.765Z,11.80
2022-08-21T21:24:33.525Z,11.90
2022-08-21T21:27:35.206Z,12.80
2022-08-21T21:32:34.117Z,12.90
2022-08-21T21:35:05.727Z,11.80
2022-08-21T21:38:02.735Z,13.30
2022-08-21T21:41:11.251Z,12.20
2022-08-21T21:44:11.684Z,12.70
2022-08-21T21:46:55.384Z,14.20
2022-08-21T21:49:49.565Z,13.30
2022-08-21T21:52:20.227Z,13.20
2022-08-21T21:55:02.788Z,14.10
2022-08-21T21:57:34.116Z,12.70
2022-08-21T22:00:15.782Z,13.90
2022-08-21T22:02:54.972Z,14.30
2022-08-21T22:06:01.356Z,14.20
2022-08-21T22:08:35.123Z,13.20
2022-08-21T22:11:28.585Z,13.20
2022-08-21T22:16:56.884Z,14.50
2022-08-21T22:19:33.818Z,14.80
2022-08-21T22:22:16.443Z,14.50
2022-08-21T22:24:48.662Z,14.30
2022-08-21T22:27:22.347Z,15.40
2022-08-21T22:29:59.010Z,14.20
2022-08-21T22:32:29.882Z,15.20
2022-08-21T22:35:25.536Z,15.00
2022-08-21T22:37:58.312Z,15.70
2022-08-21T22:40:34.945Z,14.60
2022-08-21T22:43:16.202Z,13.50
2022-08-21T22:46:04.253Z,14.40
2022-08-21T22:48:40.189Z,13.90
2022-08-21T22:51:32.522Z,14.90
2022-08-21T22:54:02.894Z,15.00
2022-08-21T22:56:45.370Z,14.10
2022-08-21T22:59:29.341Z,13.90
2022-08-21T23:02:04.656Z,15.00
2022-08-21T23:04:33.754Z,13.80
2022-08-21T23:09:38.265Z,15.40
2022-08-21T23:12:33.207Z,14.30
2022-08-21T23:15:11.921Z,14.50
2022-08-21T23:18:37.437Z,13.80
2022-08-21T23:21:18.207Z,13.90
2022-08-21T23:24:13.398Z,15.20
2022-08-21T23:27:25.533Z,15.70
2022-08-21T23:30:34.368Z,16.00
2022-08-21T23:33:24.431Z,14.80
2022-08-21T23:36:38.147Z,14.70
2022-08-21T23:39:19.798Z,16.80
2022-08-21T23:42:30.439Z,15.90
2022-08-21T23:45:17.318Z,16.40
2022-08-21T23:47:54.724Z,15.00
2022-08-21T23:50:34.587Z,15.40
2022-08-21T23:53:21.670Z,15.00
2022-08-21T23:56:08.427Z,15.20
2022-08-21T23:58:42.328Z,13.10
